createdAt,value
2022-11-13T00:00:05.736Z,84.23
2022-11-13T00:02:51.826Z,84.87
2022-11-13T00:05:37.662Z,85.21
2022-11-13T00:08:23.413Z,84.48
2022-11-13T00:11:12.024Z,83.65
2022-11-13T00:13:58.411Z,84.25
2022-11-13T00:16:44.445Z,87.15
2022-11-13T00:19:30.020Z,87.19
2022-11-13T00:22:15.845Z,84.65
2022-11-13T00:25:01.477Z,85.25
2022-11-13T00:27:47.359Z,85.70
2022-11-13T00:30:33.372Z,85.98
2022-11-13T00:33:31.978Z,85.73
2022-11-13T00:36:26.407Z,85.09
2022-11-13T00:39:12.375Z,83.82
2022-11-13T00:41:58.110Z,84.79
2022-11-13T00:44:44.732Z,82.25
2022-11-13T00:47:30.598Z,83.89
2022-11-13T00:50:16.455Z,85.10
2022-11-13T00:53:02.146Z,85.92
2022-11-13T00:55:47.746Z,89.68
2022-11-13T00:58:33.518Z,89.98
2022-11-13T01:01:20.597Z,90.20
2022-11-13T01:04:06.591Z,89.29
2022-11-13T01:06:52.365Z,85.69
2022-11-13T01:09:38.067Z,86.55
2022-11-13T01:12:23.941Z,86.49
2022-11-13T01:15:09.774Z,86.28
2022-11-13T01:17:55.796Z,85.34
2022-11-13T01:20:41.722Z,84.98
2022-11-13T01:23:27.532Z,81.84
2022-11-13T01:26:16.607Z,79.12
2022-11-13T01:29:02.091Z,75.49
2022-11-13T01:31:48.001Z,83.63
2022-11-13T01:34:33.875Z,84.27
2022-11-13T01:37:19.706Z,85.68
2022-11-13T01:40:05.665Z,86.34
2022-11-13T01:42:51.608Z,86.47
2022-11-13T01:45:58.674Z,87.29
2022-11-13T01:48:55.392Z,88.64
2022-11-13T01:51:50.146Z,88.19
2022-11-13T01:54:39.631Z,90.68
2022-11-13T01:57:25.645Z,90.00
2022-11-13T02:00:12.795Z,89.67
2022-11-13T02:02:58.547Z,90.51
2022-11-13T02:05:44.325Z,91.81
2022-11-13T02:08:30.392Z,91.30
2022-11-13T02:11:16.962Z,91.60
2022-11-13T02:14:03.175Z,92.88
2022-11-13T02:16:51.505Z,92.31
2022-11-13T02:19:40.892Z,92.10
2022-11-13T02:22:48.835Z,94.55
2022-11-13T02:25:34.788Z,92.48
2022-11-13T02:28:20.490Z,91.66
2022-11-13T02:31:08.892Z,93.29
2022-11-13T02:33:54.772Z,92.98
2022-11-13T02:36:40.349Z,93.24
2022-11-13T02:39:26.287Z,93.50
2022-11-13T02:42:12.009Z,92.63
2022-11-13T02:44:57.609Z,91.87
2022-11-13T02:47:43.746Z,92.10
2022-11-13T02:50:29.756Z,92.67
2022-11-13T02:53:15.368Z,91.02
2022-11-13T02:56:01.104Z,90.30
2022-11-13T02:58:46.916Z,91.25
2022-11-13T03:01:32.528Z,92.50
2022-11-13T03:04:18.779Z,91.90
2022-11-13T03:07:04.845Z,93.95
2022-11-13T03:09:50.810Z,94.07
2022-11-13T03:12:36.813Z,92.96
2022-11-13T03:15:23.008Z,93.14
2022-11-13T03:18:08.976Z,93.22
2022-11-13T03:20:54.679Z,89.07
2022-11-13T03:23:41.442Z,85.65
2022-11-13T03:26:29.862Z,82.88
2022-11-13T03:29:15.707Z,80.37
2022-11-13T03:32:03.298Z,77.33
2022-11-13T03:34:49.236Z,78.63
2022-11-13T03:37:34.946Z,78.01
2022-11-13T03:40:20.515Z,78.80
2022-11-13T03:43:06.239Z,78.89
2022-11-13T03:45:52.215Z,78.96
2022-11-13T03:48:37.945Z,83.74
2022-11-13T03:51:23.660Z,79.80
2022-11-13T03:54:09.325Z,77.58
2022-11-13T03:56:54.970Z,75.88
2022-11-13T03:59:40.899Z,72.30
2022-11-13T04:02:26.564Z,72.97
2022-11-13T04:05:12.703Z,73.45
2022-11-13T04:07:58.393Z,80.23
2022-11-13T04:10:44.852Z,82.17
2022-11-13T04:13:30.598Z,86.06
2022-11-13T04:16:16.338Z,88.21
2022-11-13T04:19:02.379Z,88.50
2022-11-13T04:21:48.136Z,89.40
2022-11-13T04:24:33.760Z,90.50
2022-11-13T04:27:19.387Z,87.43
2022-11-13T04:30:05.688Z,88.21
2022-11-13T04:32:51.306Z,86.17
2022-11-13T04:35:37.025Z,85.00
2022-11-13T04:38:22.606Z,87.39
2022-11-13T04:41:27.336Z,89.07
2022-11-13T04:44:13.356Z,91.10
2022-11-13T04:46:59.047Z,92.35
2022-11-13T04:49:44.758Z,90.12
2022-11-13T04:52:30.600Z,89.17
2022-11-13T04:55:16.232Z,90.72
2022-11-13T04:58:02.011Z,94.47
2022-11-13T05:00:47.643Z,93.21
2022-11-13T05:03:33.398Z,92.85
2022-11-13T05:06:19.404Z,92.23
2022-11-13T05:09:05.437Z,90.53
2022-11-13T05:11:51.300Z,92.96
2022-11-13T05:14:40.669Z,93.17
2022-11-13T05:17:26.257Z,93.61
2022-11-13T05:20:12.173Z,93.67
2022-11-13T05:22:57.768Z,91.40
2022-11-13T05:25:44.521Z,86.71
2022-11-13T05:28:30.428Z,83.24
2022-11-13T05:31:16.719Z,83.40
2022-11-13T05:34:06.215Z,85.56
2022-11-13T05:36:52.316Z,91.19
2022-11-13T05:39:37.974Z,89.57
2022-11-13T05:42:23.555Z,88.94
2022-11-13T05:45:09.820Z,90.63
2022-11-13T05:47:55.498Z,91.15
2022-11-13T05:50:41.265Z,90.34
2022-11-13T05:53:26.912Z,84.80
2022-11-13T05:56:20.672Z,87.84
2022-11-13T05:59:06.632Z,91.23
2022-11-13T06:01:52.481Z,89.07
2022-11-13T06:04:38.663Z,84.16
2022-11-13T06:07:24.661Z,80.58
2022-11-13T06:10:10.705Z,84.46
2022-11-13T06:12:56.392Z,85.04
2022-11-13T06:15:42.214Z,87.97
2022-11-13T06:18:28.647Z,86.65
2022-11-13T06:21:21.003Z,87.65
2022-11-13T06:24:07.396Z,84.90
2022-11-13T06:26:53.793Z,87.22
2022-11-13T06:29:39.426Z,91.53
2022-11-13T06:32:25.157Z,84.62
2022-11-13T06:35:11.077Z,84.47
2022-11-13T06:37:56.824Z,80.94
2022-11-13T06:40:42.815Z,77.52
2022-11-13T06:43:28.917Z,80.98
2022-11-13T06:46:19.341Z,83.09
2022-11-13T06:49:04.946Z,83.80
2022-11-13T06:51:50.670Z,84.19
2022-11-13T06:54:36.378Z,86.00
2022-11-13T06:57:22.663Z,79.20
2022-11-13T07:00:09.393Z,78.55
2022-11-13T07:02:55.086Z,76.24
2022-11-13T07:05:41.718Z,75.48
2022-11-13T07:08:27.735Z,79.32
2022-11-13T07:11:19.370Z,84.54
2022-11-13T07:14:05.120Z,82.88
2022-11-13T07:17:08.512Z,84.39
2022-11-13T07:19:55.650Z,84.08
2022-11-13T07:22:41.237Z,81.76
2022-11-13T07:25:27.671Z,81.96
2022-11-13T07:28:13.449Z,80.18
2022-11-13T07:30:59.713Z,78.32
2022-11-13T07:33:48.096Z,76.67
2022-11-13T07:36:33.597Z,76.72
2022-11-13T07:39:19.242Z,76.66
2022-11-13T07:42:05.063Z,77.78
2022-11-13T07:44:55.068Z,77.79
2022-11-13T07:47:41.607Z,78.65
2022-11-13T07:50:33.894Z,78.76
2022-11-13T07:53:20.527Z,78.56
2022-11-13T07:56:07.134Z,77.26
2022-11-13T07:58:52.936Z,76.45
2022-11-13T08:01:38.722Z,76.18
2022-11-13T08:04:25.832Z,75.42
2022-11-13T08:07:13.178Z,76.08
2022-11-13T08:09:58.979Z,77.11
2022-11-13T08:12:45.318Z,75.91
2022-11-13T08:15:31.753Z,74.86
2022-11-13T08:18:17.615Z,76.36
2022-11-13T08:21:04.615Z,75.10
2022-11-13T08:23:50.518Z,74.14
2022-11-13T08:26:39.051Z,73.36
2022-11-13T08:29:24.974Z,74.15
2022-11-13T08:32:10.717Z,74.13
2022-11-13T08:34:56.549Z,75.75
2022-11-13T08:37:42.399Z,78.13
2022-11-13T08:40:28.667Z,80.41
2022-11-13T08:43:14.703Z,79.34
2022-11-13T08:46:00.336Z,76.50
2022-11-13T08:48:46.086Z,74.71
2022-11-13T08:51:31.765Z,74.21
2022-11-13T08:54:17.784Z,74.21
2022-11-13T08:57:06.090Z,76.17
2022-11-13T08:59:51.966Z,77.07
2022-11-13T09:02:37.663Z,76.60
2022-11-13T09:05:24.224Z,75.56
2022-11-13T09:08:10.722Z,75.86
2022-11-13T09:10:56.639Z,75.90
2022-11-13T09:13:45.086Z,77.31
2022-11-13T09:16:33.640Z,77.55
2022-11-13T09:19:19.505Z,76.80
2022-11-13T09:22:05.157Z,76.93
2022-11-13T09:24:50.949Z,75.66
2022-11-13T09:27:36.805Z,77.45
2022-11-13T09:30:23.322Z,76.06
2022-11-13T09:33:10.301Z,75.62
2022-11-13T09:35:55.977Z,75.59
2022-11-13T09:38:42.540Z,75.77
2022-11-13T09:41:30.599Z,74.75
2022-11-13T09:44:20.852Z,75.88
2022-11-13T09:47:28.401Z,75.68
2022-11-13T09:50:20.744Z,76.45
2022-11-13T09:53:06.538Z,76.16
2022-11-13T09:56:06.900Z,76.35
2022-11-13T09:59:25.083Z,76.07
2022-11-13T10:02:21.248Z,76.78
2022-11-13T10:05:13.498Z,76.79
2022-11-13T10:08:21.873Z,76.96
2022-11-13T10:11:28.832Z,75.82
2022-11-13T10:14:42.202Z,76.52
2022-11-13T10:17:49.094Z,77.49
2022-11-13T10:20:48.643Z,77.70
2022-11-13T10:23:37.353Z,77.23
2022-11-13T10:26:24.917Z,77.12
2022-11-13T10:29:18.160Z,76.32
2022-11-13T10:32:27.748Z,76.98
2022-11-13T10:35:45.607Z,77.54
2022-11-13T10:38:42.869Z,76.50
2022-11-13T10:41:29.185Z,76.84
2022-11-13T10:44:21.046Z,77.52
2022-11-13T10:47:26.423Z,77.41
2022-11-13T10:50:28.091Z,77.99
2022-11-13T10:53:16.854Z,76.78
2022-11-13T10:56:12.965Z,76.62
2022-11-13T10:59:26.182Z,75.74
2022-11-13T11:02:11.875Z,75.62
2022-11-13T11:05:03.427Z,73.96
2022-11-13T11:07:49.656Z,74.01
2022-11-13T11:10:36.724Z,72.67
2022-11-13T11:13:23.903Z,71.08
2022-11-13T11:16:13.797Z,70.67
2022-11-13T11:19:02.174Z,69.99
2022-11-13T11:21:51.744Z,69.34
2022-11-13T11:24:51.502Z,68.21
2022-11-13T11:27:47.784Z,67.26
2022-11-13T11:30:40.635Z,65.71
2022-11-13T11:33:37.831Z,65.29
2022-11-13T11:36:36.939Z,64.69
2022-11-13T11:39:40.142Z,64.82
2022-11-13T11:42:47.355Z,64.48
2022-11-13T11:45:37.526Z,63.64
2022-11-13T11:48:27.291Z,63.78
2022-11-13T11:51:35.986Z,62.65
2022-11-13T11:54:40.315Z,62.45
2022-11-13T11:57:47.682Z,61.77
2022-11-13T12:00:34.686Z,61.58
2022-11-13T12:03:44.070Z,60.67
2022-11-13T12:06:38.895Z,60.24
2022-11-13T12:09:30.669Z,59.99
2022-11-13T12:12:37.822Z,59.95
2022-11-13T12:15:37.787Z,59.98
2022-11-13T12:18:48.603Z,59.39
2022-11-13T12:22:04.027Z,60.96
2022-11-13T12:25:09.512Z,59.75
2022-11-13T12:28:16.890Z,58.85
2022-11-13T12:31:39.106Z,58.75
2022-11-13T12:34:30.006Z,58.64
2022-11-13T12:37:52.258Z,58.91
2022-11-13T12:41:20.689Z,59.80
2022-11-13T12:44:27.338Z,58.64
2022-11-13T12:47:13.620Z,58.56
2022-11-13T12:50:05.052Z,58.05
2022-11-13T12:53:06.342Z,58.07
2022-11-13T12:56:00.952Z,58.12
2022-11-13T12:59:23.764Z,58.04
2022-11-13T13:02:09.197Z,58.17
2022-11-13T13:05:07.202Z,57.71
2022-11-13T13:08:05.491Z,58.54
2022-11-13T13:10:56.139Z,58.07
2022-11-13T13:13:47.300Z,57.94
2022-11-13T13:16:33.212Z,58.18
2022-11-13T13:19:29.395Z,57.93
2022-11-13T13:22:32.816Z,57.60
2022-11-13T13:25:33.617Z,57.06
2022-11-13T13:28:24.310Z,58.07
2022-11-13T13:31:12.933Z,56.75
2022-11-13T13:34:23.041Z,57.47
2022-11-13T13:37:23.750Z,56.54
2022-11-13T13:40:15.319Z,56.85
2022-11-13T13:43:42.924Z,58.26
2022-11-13T13:46:31.238Z,58.51
2022-11-13T13:49:20.510Z,57.86
2022-11-13T13:52:06.545Z,57.85
2022-11-13T13:54:52.831Z,57.97
2022-11-13T13:57:41.284Z,57.96
2022-11-13T14:00:27.549Z,58.52
2022-11-13T14:03:19.863Z,59.09
2022-11-13T14:06:24.516Z,58.99
2022-11-13T14:09:15.615Z,59.16
2022-11-13T14:12:09.017Z,59.58
2022-11-13T14:14:55.674Z,59.15
2022-11-13T14:17:41.470Z,59.36
2022-11-13T14:20:27.288Z,59.43
2022-11-13T14:23:15.855Z,59.72
2022-11-13T14:26:03.000Z,60.71
2022-11-13T14:28:56.008Z,61.50
2022-11-13T14:31:41.921Z,62.21
2022-11-13T14:34:27.555Z,61.65
2022-11-13T14:37:23.057Z,62.08
2022-11-13T14:40:33.979Z,64.16
2022-11-13T14:43:29.833Z,62.78
2022-11-13T14:46:36.852Z,62.53
2022-11-13T14:49:33.829Z,64.25
2022-11-13T14:52:28.286Z,63.54
2022-11-13T14:55:22.986Z,63.97
2022-11-13T14:58:13.645Z,64.71
2022-11-13T15:01:12.004Z,64.84
2022-11-13T15:03:58.484Z,64.80
2022-11-13T15:06:44.819Z,65.53
2022-11-13T15:09:31.227Z,65.23
2022-11-13T15:12:17.227Z,66.03
2022-11-13T15:15:03.228Z,66.60
2022-11-13T15:17:50.604Z,66.21
2022-11-13T15:20:36.741Z,66.22
2022-11-13T15:23:23.266Z,67.87
2022-11-13T15:26:11.464Z,67.38
2022-11-13T15:28:57.741Z,68.41
2022-11-13T15:31:45.575Z,68.57
2022-11-13T15:34:31.920Z,68.46
2022-11-13T15:37:18.330Z,69.27
2022-11-13T15:40:05.016Z,69.49
2022-11-13T15:42:50.976Z,70.66
2022-11-13T15:45:41.226Z,70.32
2022-11-13T15:48:29.773Z,69.85
2022-11-13T15:51:28.142Z,69.01
2022-11-13T15:54:25.636Z,69.60
2022-11-13T15:57:19.054Z,70.97
2022-11-13T16:00:16.747Z,72.09
2022-11-13T16:03:04.878Z,71.72
2022-11-13T16:05:53.526Z,71.03
2022-11-13T16:08:39.805Z,72.07
2022-11-13T16:11:25.853Z,73.73
2022-11-13T16:14:11.679Z,75.85
2022-11-13T16:16:57.378Z,78.55
2022-11-13T16:19:46.267Z,84.11
2022-11-13T16:22:32.892Z,83.08
2022-11-13T16:25:20.954Z,77.42
2022-11-13T16:28:18.109Z,74.35
2022-11-13T16:31:04.074Z,72.68
2022-11-13T16:33:50.424Z,71.83
2022-11-13T16:36:37.628Z,70.85
2022-11-13T16:39:24.132Z,71.96
2022-11-13T16:42:11.290Z,71.54
2022-11-13T16:44:58.083Z,72.03
2022-11-13T16:47:44.475Z,72.33
2022-11-13T16:50:32.468Z,73.05
2022-11-13T16:53:19.187Z,74.77
2022-11-13T16:56:32.653Z,74.85
2022-11-13T16:59:20.558Z,74.60
2022-11-13T17:02:17.867Z,75.48
2022-11-13T17:05:05.025Z,75.12
2022-11-13T17:07:57.409Z,75.41
2022-11-13T17:10:43.648Z,75.58
2022-11-13T17:13:30.834Z,75.43
2022-11-13T17:16:18.473Z,75.45
2022-11-13T17:19:04.546Z,75.26
2022-11-13T17:21:50.932Z,74.83
2022-11-13T17:24:39.989Z,75.46
2022-11-13T17:27:26.650Z,74.50
2022-11-13T17:30:13.801Z,75.64
2022-11-13T17:33:00.246Z,76.30
2022-11-13T17:35:54.123Z,76.53
2022-11-13T17:38:40.359Z,76.14
2022-11-13T17:41:26.683Z,76.26
2022-11-13T17:44:12.872Z,76.94
2022-11-13T17:46:59.910Z,75.68
2022-11-13T17:49:45.995Z,75.68
2022-11-13T17:52:32.498Z,75.90
2022-11-13T17:55:19.338Z,76.24
2022-11-13T17:58:05.568Z,79.07
2022-11-13T18:00:52.412Z,78.67
2022-11-13T18:03:39.155Z,80.58
2022-11-13T18:06:26.346Z,80.99
2022-11-13T18:09:13.798Z,79.09
2022-11-13T18:12:00.357Z,77.69
2022-11-13T18:14:52.272Z,75.39
2022-11-13T18:17:39.180Z,74.43
2022-11-13T18:20:25.399Z,72.61
2022-11-13T18:23:11.727Z,74.69
2022-11-13T18:25:58.072Z,73.74
2022-11-13T18:28:45.300Z,72.89
2022-11-13T18:31:31.997Z,74.67
2022-11-13T18:34:18.524Z,75.13
2022-11-13T18:37:05.060Z,83.60
2022-11-13T18:39:51.387Z,80.07
2022-11-13T18:42:38.060Z,77.93
2022-11-13T18:45:24.530Z,77.04
2022-11-13T18:48:11.459Z,76.76
2022-11-13T18:50:59.524Z,76.85
2022-11-13T18:53:48.661Z,76.61
2022-11-13T18:56:36.243Z,77.57
2022-11-13T18:59:22.234Z,77.72
2022-11-13T19:02:10.517Z,77.69
2022-11-13T19:04:57.071Z,77.67
2022-11-13T19:07:43.918Z,75.35
2022-11-13T19:10:30.442Z,73.36
2022-11-13T19:13:17.076Z,72.97
2022-11-13T19:16:15.893Z,70.93
2022-11-13T19:19:08.770Z,69.95
2022-11-13T19:21:55.134Z,70.84
2022-11-13T19:24:50.436Z,73.90
2022-11-13T19:27:37.133Z,79.36
2022-11-13T19:30:23.506Z,81.31
2022-11-13T19:33:10.525Z,83.88
2022-11-13T19:35:56.836Z,82.27
2022-11-13T19:38:44.057Z,82.73
2022-11-13T19:41:30.989Z,86.58
2022-11-13T19:44:17.709Z,88.10
2022-11-13T19:47:04.186Z,87.45
2022-11-13T19:49:50.869Z,83.40
2022-11-13T19:52:36.671Z,81.21
2022-11-13T19:55:23.402Z,77.62
2022-11-13T19:58:10.208Z,76.39
2022-11-13T20:00:57.223Z,76.93
2022-11-13T20:03:43.827Z,76.19
2022-11-13T20:06:32.974Z,77.24
2022-11-13T20:09:19.493Z,76.59
2022-11-13T20:12:08.992Z,76.56
2022-11-13T20:14:56.762Z,75.97
2022-11-13T20:17:43.491Z,77.06
2022-11-13T20:20:29.892Z,80.86
2022-11-13T20:23:15.835Z,84.08
2022-11-13T20:26:04.966Z,84.53
2022-11-13T20:28:51.087Z,81.10
2022-11-13T20:31:37.320Z,79.44
2022-11-13T20:34:24.010Z,80.66
2022-11-13T20:37:10.408Z,79.44
2022-11-13T20:39:57.201Z,77.84
2022-11-13T20:42:43.194Z,81.88
2022-11-13T20:45:29.525Z,78.83
2022-11-13T20:48:16.129Z,79.51
2022-11-13T20:51:11.154Z,81.82
2022-11-13T20:53:57.603Z,78.53
2022-11-13T20:56:44.922Z,77.48
2022-11-13T20:59:31.374Z,77.66
2022-11-13T21:02:18.142Z,77.76
2022-11-13T21:05:04.640Z,77.13
2022-11-13T21:07:50.283Z,75.69
2022-11-13T21:10:36.260Z,76.83
2022-11-13T21:13:22.402Z,77.73
2022-11-13T21:16:09.537Z,77.05
2022-11-13T21:18:59.618Z,78.47
2022-11-13T21:21:45.498Z,77.39
2022-11-13T21:24:31.988Z,76.70
2022-11-13T21:27:17.802Z,77.80
2022-11-13T21:30:03.733Z,77.79
2022-11-13T21:32:49.576Z,77.67
2022-11-13T21:35:35.286Z,78.41
2022-11-13T21:38:21.315Z,77.86
2022-11-13T21:41:26.859Z,78.15
2022-11-13T21:44:13.302Z,78.72
2022-11-13T21:46:59.958Z,79.11
2022-11-13T21:49:45.699Z,79.16
2022-11-13T21:52:31.410Z,78.67
2022-11-13T21:55:17.290Z,78.69
2022-11-13T21:58:03.029Z,79.34
2022-11-13T22:00:48.695Z,81.17
2022-11-13T22:03:34.504Z,80.40
2022-11-13T22:06:20.624Z,79.55
2022-11-13T22:09:13.590Z,79.32
2022-11-13T22:11:59.622Z,79.38
2022-11-13T22:14:45.264Z,79.44
2022-11-13T22:17:30.934Z,79.96
2022-11-13T22:20:16.926Z,79.30
2022-11-13T22:23:05.607Z,80.01
2022-11-13T22:25:57.067Z,79.42
2022-11-13T22:28:45.074Z,79.31
2022-11-13T22:31:31.828Z,80.10
2022-11-13T22:34:18.254Z,79.39
2022-11-13T22:37:04.279Z,78.95
2022-11-13T22:39:49.962Z,79.35
2022-11-13T22:42:35.521Z,79.34
2022-11-13T22:45:24.021Z,78.20
2022-11-13T22:48:11.258Z,78.89
2022-11-13T22:51:02.880Z,78.59
2022-11-13T22:53:56.171Z,76.89
2022-11-13T22:56:42.386Z,79.12
2022-11-13T22:59:28.414Z,78.18
2022-11-13T23:02:14.344Z,78.82
2022-11-13T23:05:00.207Z,79.21
2022-11-13T23:07:46.093Z,79.34
2022-11-13T23:10:31.702Z,80.22
2022-11-13T23:13:17.473Z,77.34
2022-11-13T23:16:03.620Z,78.75
2022-11-13T23:18:51.267Z,80.01
2022-11-13T23:21:37.287Z,79.45
2022-11-13T23:24:24.365Z,82.82
2022-11-13T23:27:10.237Z,79.89
2022-11-13T23:29:56.021Z,79.01
2022-11-13T23:32:41.571Z,79.71
2022-11-13T23:35:27.738Z,78.35
2022-11-13T23:38:13.967Z,79.42
2022-11-13T23:41:00.653Z,79.47
2022-11-13T23:46:52.248Z,78.68
2022-11-13T23:49:37.973Z,78.89
2022-11-13T23:52:23.851Z,77.98
2022-11-13T23:55:10.642Z,78.50
2022-11-13T23:57:58.189Z,79.23
